Time;durP1;ratioP1;P1;durP2;ratioP2;P2;SDS_P1;SDS_P2;PMS_P1;PMS_P2;Temp;Humidity;BMP_temperature;BMP_pressure;BME280_temperature;BME280_humidity;BME280_pressure;Samples;Min_cycle;Max_cycle;Signal;HPM_P1;HPM_P2
2022/05/27 00:00:06;;;;;;;2.30;2.10;;;18.90;59.10;;;;;;6172774;23;20174;-86
2022/05/27 00:02:32;;;;;;;2.50;2.30;;;18.90;59.00;;;;;;6190672;23;20138;-87
2022/05/27 00:04:57;;;;;;;2.22;2.10;;;18.90;59.00;;;;;;6191751;23;20514;-86
2022/05/27 00:07:23;;;;;;;2.40;2.20;;;18.90;59.00;;;;;;6190793;23;20565;-86
2022/05/27 00:09:49;;;;;;;2.25;2.15;;;18.90;59.00;;;;;;6190558;23;20181;-86
2022/05/27 00:12:15;;;;;;;2.30;2.10;;;18.90;59.00;;;;;;6190710;23;20127;-86
2022/05/27 00:14:41;;;;;;;2.53;2.33;;;18.90;59.10;;;;;;6190606;23;20138;-86
2022/05/27 00:17:06;;;;;;;2.38;2.17;;;18.90;59.00;;;;;;6141554;23;20143;-87
2022/05/27 00:19:32;;;;;;;2.40;2.20;;;18.90;59.00;;;;;;6190361;23;20676;-86
2022/05/27 00:21:57;;;;;;;2.28;2.08;;;18.90;59.00;;;;;;6190871;23;20131;-86
2022/05/27 00:24:24;;;;;;;2.30;2.10;;;18.90;59.00;;;;;;6141284;23;20135;-86
2022/05/27 00:26:50;;;;;;;2.15;2.03;;;18.90;59.00;;;;;;6190809;23;20581;-87
2022/05/27 00:29:15;;;;;;;2.00;1.90;;;18.90;59.00;;;;;;6217259;23;20134;-86
2022/05/27 00:31:41;;;;;;;2.42;2.22;;;18.90;59.00;;;;;;6191104;23;20135;-86
2022/05/27 00:34:09;;;;;;;2.50;2.30;;;18.90;59.00;;;;;;6217221;23;20134;-86
2022/05/27 00:36:35;;;;;;;2.42;2.22;;;18.90;59.00;;;;;;6216523;23;20137;-86
2022/05/27 00:39:03;;;;;;;2.40;2.20;;;18.90;59.00;;;;;;6215065;23;20639;-86
2022/05/27 00:41:30;;;;;;;2.42;2.22;;;18.90;59.10;;;;;;6196321;23;20178;-86
2022/05/27 00:43:56;;;;;;;2.58;2.38;;;18.80;59.00;;;;;;6170375;23;20176;-86
2022/05/27 00:46:24;;;;;;;2.58;2.38;;;18.90;58.90;;;;;;6220391;23;20129;-86
2022/05/27 00:48:51;;;;;;;2.38;2.17;;;18.90;59.00;;;;;;6170713;23;20138;-85
2022/05/27 00:51:20;;;;;;;2.50;2.30;;;18.90;58.90;;;;;;6171459;23;20146;-87
2022/05/27 00:53:57;;;;;;;2.33;2.15;;;18.90;59.00;;;;;;6170848;23;20164;-86
2022/05/27 00:56:24;;;;;;;2.50;2.30;;;18.90;59.00;;;;;;6172477;23;20585;-86
2022/05/27 00:58:53;;;;;;;2.55;2.35;;;18.90;59.00;;;;;;6220607;23;20137;-86
2022/05/27 01:01:19;;;;;;;2.30;2.20;;;18.90;59.00;;;;;;6195846;23;20166;-86
2022/05/27 01:03:44;;;;;;;2.50;2.30;;;18.90;59.00;;;;;;6220676;23;20199;-87
2022/05/27 01:06:10;;;;;;;2.72;2.53;;;18.80;59.00;;;;;;6195015;23;20141;-86
2022/05/27 01:08:36;;;;;;;2.40;2.20;;;18.90;59.10;;;;;;6195790;23;20158;-86
2022/05/27 01:11:34;;;;;;;2.40;2.20;;;18.90;59.10;;;;;;6170418;23;20450;-86
2022/05/27 01:14:14;;;;;;;2.47;2.28;;;18.80;59.00;;;;;;6224825;23;20132;-87
2022/05/27 01:16:54;;;;;;;2.60;2.40;;;18.80;59.00;;;;;;6196904;23;20146;-86
2022/05/27 01:23:04;;;;;;;2.58;2.38;;;18.90;59.20;;;;;;6229244;23;20195;-86
2022/05/27 01:26:04;;;;;;;2.30;2.10;;;18.80;58.90;;;;;;6222829;23;20134;-86
2022/05/27 01:28:53;;;;;;;2.45;2.25;;;18.80;59.00;;;;;;6246790;23;20580;-86
2022/05/27 01:31:43;;;;;;;2.40;2.20;;;18.90;59.10;;;;;;6203410;23;20129;-86
2022/05/27 01:34:29;;;;;;;2.40;2.20;;;18.80;59.10;;;;;;6220061;23;20136;-87
2022/05/27 01:37:07;;;;;;;2.22;2.03;;;18.90;59.10;;;;;;6224880;23;20129;-86
2022/05/27 01:39:43;;;;;;;2.40;2.20;;;18.80;59.10;;;;;;6171482;23;20164;-87
2022/05/27 01:42:17;;;;;;;2.17;2.00;;;18.80;59.10;;;;;;6170759;23;20168;-86
2022/05/27 01:44:58;;;;;;;2.50;2.30;;;18.90;59.10;;;;;;6171165;23;20471;-87
2022/05/27 01:47:34;;;;;;;2.60;2.40;;;18.80;59.10;;;;;;6220975;23;20623;-87
2022/05/27 01:50:33;;;;;;;2.30;2.17;;;18.80;59.10;;;;;;6219882;23;20143;-86
2022/05/27 01:53:34;;;;;;;2.45;2.25;;;18.80;59.10;;;;;;6195235;23;20480;-86
2022/05/27 01:56:19;;;;;;;2.40;2.20;;;18.80;59.10;;;;;;6219608;23;20550;-86
2022/05/27 01:58:48;;;;;;;2.38;2.20;;;18.80;59.20;;;;;;6195125;23;20137;-86
2022/05/27 02:01:17;;;;;;;2.42;2.22;;;18.80;59.10;;;;;;6194949;23;20489;-86
2022/05/27 02:03:45;;;;;;;2.45;2.25;;;18.80;59.10;;;;;;6194639;23;20577;-85
2022/05/27 02:06:14;;;;;;;2.50;2.30;;;18.80;59.00;;;;;;6195186;23;20130;-86
2022/05/27 02:08:47;;;;;;;2.05;1.92;;;18.80;59.10;;;;;;6170242;23;20584;-86
2022/05/27 02:11:15;;;;;;;2.20;2.00;;;18.80;59.00;;;;;;6171214;23;20492;-86
2022/05/27 02:13:45;;;;;;;2.42;2.22;;;18.80;59.00;;;;;;6194377;23;20468;-87
2022/05/27 02:16:27;;;;;;;2.47;2.28;;;18.80;59.10;;;;;;6195435;23;20137;-86
2022/05/27 02:18:55;;;;;;;2.70;2.50;;;18.80;59.10;;;;;;6197998;23;20141;-86
2022/05/27 02:21:24;;;;;;;2.60;2.40;;;18.80;59.10;;;;;;6194950;23;20161;-86
2022/05/27 02:23:56;;;;;;;2.40;2.20;;;18.80;59.10;;;;;;6194824;23;20133;-87
2022/05/27 02:26:24;;;;;;;2.25;2.05;;;18.80;59.20;;;;;;6170811;23;20141;-86
2022/05/27 02:28:55;;;;;;;2.13;2.00;;;18.80;59.10;;;;;;6195219;23;20134;-86
2022/05/27 02:31:22;;;;;;;2.10;2.00;;;18.80;59.10;;;;;;6220742;23;20180;-86
2022/05/27 02:36:37;;;;;;;2.35;2.15;;;18.90;59.20;;;;;;6202068;23;20134;-86
2022/05/27 02:39:04;;;;;;;2.20;2.00;;;18.80;59.10;;;;;;6194601;23;20177;-86
2022/05/27 02:41:34;;;;;;;2.28;2.08;;;18.80;59.10;;;;;;6194502;23;20169;-87
2022/05/27 02:44:29;;;;;;;2.40;2.20;;;18.80;59.20;;;;;;6195557;23;20134;-86
2022/05/27 02:47:22;;;;;;;2.05;1.92;;;18.70;59.20;;;;;;6194596;23;20569;-86
2022/05/27 02:50:02;;;;;;;2.30;2.10;;;18.80;59.30;;;;;;6199901;23;20133;-86
2022/05/27 02:52:51;;;;;;;2.55;2.35;;;18.80;59.30;;;;;;6170623;23;20152;-86
2022/05/27 02:55:39;;;;;;;2.13;2.03;;;18.80;59.20;;;;;;6223611;23;20213;-86
2022/05/27 02:58:04;;;;;;;2.40;2.20;;;18.70;59.00;;;;;;6245904;23;20134;-86
2022/05/27 03:00:33;;;;;;;2.05;1.95;;;18.80;59.10;;;;;;6194918;23;20684;-87
2022/05/27 03:02:59;;;;;;;2.30;2.10;;;18.80;59.20;;;;;;6169512;23;20228;-86
2022/05/27 03:05:37;;;;;;;2.38;2.17;;;18.80;59.10;;;;;;6195538;23;20152;-86
2022/05/27 03:08:11;;;;;;;2.55;2.35;;;18.70;59.10;;;;;;6175564;23;20153;-86
2022/05/27 03:10:59;;;;;;;2.20;2.00;;;18.80;59.10;;;;;;6222345;23;20465;-86
2022/05/27 03:13:50;;;;;;;2.45;2.25;;;18.80;59.10;;;;;;6225205;23;20548;-86
2022/05/27 03:16:25;;;;;;;2.45;2.25;;;18.80;59.10;;;;;;6226451;23;20129;-86
2022/05/27 03:19:10;;;;;;;2.40;2.20;;;18.80;59.20;;;;;;6198893;23;20134;-86
2022/05/27 03:21:50;;;;;;;2.50;2.30;;;18.80;59.20;;;;;;6173656;23;20181;-86
2022/05/27 03:24:21;;;;;;;2.35;2.15;;;18.80;59.20;;;;;;6249208;23;20197;-86
2022/05/27 03:27:12;;;;;;;2.60;2.40;;;18.80;59.30;;;;;;6197905;23;20141;-87
2022/05/27 03:29:51;;;;;;;2.45;2.25;;;18.80;59.20;;;;;;6206137;23;20125;-86
2022/05/27 03:32:30;;;;;;;2.30;2.10;;;18.80;59.20;;;;;;6173685;23;20149;-86
2022/05/27 03:35:05;;;;;;;2.20;2.10;;;18.80;59.20;;;;;;6172955;23;20145;-86
2022/05/27 03:37:36;;;;;;;2.38;2.17;;;18.80;59.30;;;;;;6198570;23;20590;-86
2022/05/27 03:40:10;;;;;;;2.40;2.20;;;18.80;59.40;;;;;;6172832;23;20188;-86
2022/05/27 03:42:36;;;;;;;2.13;2.03;;;18.80;59.30;;;;;;6199128;23;20212;-87
2022/05/27 03:45:04;;;;;;;2.33;2.13;;;18.80;59.20;;;;;;6173009;23;20227;-86
2022/05/27 03:47:34;;;;;;;2.67;2.47;;;18.70;59.30;;;;;;6197684;23;20129;-87
2022/05/27 03:49:59;;;;;;;2.10;2.00;;;18.70;59.30;;;;;;6197580;23;20145;-87
2022/05/27 03:52:26;;;;;;;2.13;2.00;;;18.80;59.30;;;;;;6222398;23;20140;-86
2022/05/27 03:54:52;;;;;;;2.10;2.00;;;18.70;59.30;;;;;;6197877;23;20145;-87
2022/05/27 03:57:18;;;;;;;2.05;1.95;;;18.70;59.10;;;;;;6222316;23;20137;-86
2022/05/27 03:59:43;;;;;;;2.40;2.20;;;18.70;59.10;;;;;;6249095;23;20176;-86
2022/05/27 04:02:10;;;;;;;2.15;2.05;;;18.80;59.30;;;;;;6222906;23;20149;-86
2022/05/27 04:04:35;;;;;;;2.13;2.03;;;18.70;59.30;;;;;;6222483;23;20240;-86
2022/05/27 04:07:01;;;;;;;2.13;2.03;;;18.70;59.40;;;;;;6172995;23;20144;-86
2022/05/27 04:09:27;;;;;;;2.42;2.22;;;18.70;59.20;;;;;;6198075;23;20557;-86
2022/05/27 04:11:52;;;;;;;2.30;2.10;;;18.80;59.20;;;;;;6172782;23;20587;-86
2022/05/27 04:14:18;;;;;;;2.30;2.10;;;18.70;59.30;;;;;;6197389;23;20599;-86
2022/05/27 04:16:44;;;;;;;2.15;2.03;;;18.70;59.20;;;;;;6196781;23;20133;-87
2022/05/27 04:19:10;;;;;;;2.20;2.00;;;18.70;59.20;;;;;;6171165;23;20244;-86
2022/05/27 04:21:36;;;;;;;2.40;2.20;;;18.80;59.30;;;;;;6195712;23;20173;-86
2022/05/27 04:24:02;;;;;;;2.17;2.08;;;18.70;59.30;;;;;;6195721;23;20138;-86
2022/05/27 04:26:28;;;;;;;2.10;2.00;;;18.70;59.30;;;;;;6220771;23;20156;-87
2022/05/27 04:28:53;;;;;;;2.20;2.00;;;18.70;59.20;;;;;;6220639;23;20137;-86
2022/05/27 04:31:19;;;;;;;1.98;1.88;;;18.70;59.30;;;;;;6220559;23;20216;-86
2022/05/27 04:33:46;;;;;;;2.40;2.20;;;18.70;59.10;;;;;;6220708;23;20130;-86
2022/05/27 04:36:12;;;;;;;2.20;2.00;;;18.70;59.20;;;;;;6220421;23;20126;-86
2022/05/27 04:38:38;;;;;;;2.22;2.03;;;18.70;59.20;;;;;;6220506;23;20196;-86
2022/05/27 04:41:04;;;;;;;2.20;2.00;;;18.70;59.20;;;;;;6170490;23;20486;-86
2022/05/27 04:43:30;;;;;;;2.13;2.00;;;18.70;59.10;;;;;;6220776;23;20225;-87
2022/05/27 04:45:55;;;;;;;2.00;1.90;;;18.70;58.90;;;;;;6171276;23;20161;-86
2022/05/27 04:48:21;;;;;;;2.10;2.00;;;18.70;58.90;;;;;;6195389;23;20134;-87
2022/05/27 04:50:47;;;;;;;2.30;2.10;;;18.70;59.00;;;;;;6170700;23;20146;-86
2022/05/27 04:53:13;;;;;;;2.00;1.90;;;18.80;59.20;;;;;;6195415;23;20136;-86
2022/05/27 04:55:38;;;;;;;2.10;2.00;;;18.70;59.10;;;;;;6195609;23;20152;-86
2022/05/27 04:58:04;;;;;;;2.00;1.90;;;18.70;59.10;;;;;;6195294;23;20565;-87
2022/05/27 05:00:34;;;;;;;2.28;2.10;;;18.70;59.10;;;;;;6194967;23;20169;-87
2022/05/27 05:03:00;;;;;;;1.98;1.88;;;18.70;59.10;;;;;;6170553;23;20141;-87
2022/05/27 05:05:27;;;;;;;2.30;2.10;;;18.70;59.00;;;;;;6219703;23;20169;-87
2022/05/27 05:07:58;;;;;;;2.00;1.90;;;18.80;59.10;;;;;;6170027;23;20576;-86
2022/05/27 05:10:24;;;;;;;1.98;1.88;;;18.80;59.10;;;;;;6219796;23;20172;-87
2022/05/27 05:12:50;;;;;;;1.98;1.88;;;18.60;58.90;;;;;;6219884;23;20503;-86
2022/05/27 05:15:16;;;;;;;2.08;1.98;;;18.70;59.10;;;;;;6195057;23;20160;-86
2022/05/27 05:17:42;;;;;;;2.17;1.88;;;18.70;59.10;;;;;;6195171;23;20623;-86
2022/05/27 05:20:08;;;;;;;2.00;1.85;;;18.70;59.10;;;;;;6170320;23;20195;-86
2022/05/27 05:22:34;;;;;;;2.20;2.00;;;18.80;59.00;;;;;;6220009;23;20168;-87
2022/05/27 05:24:59;;;;;;;1.88;1.77;;;18.70;59.10;;;;;;6246781;23;20137;-87
2022/05/27 05:27:28;;;;;;;1.80;1.70;;;18.70;59.20;;;;;;6219926;23;20144;-86
2022/05/27 05:29:54;;;;;;;1.70;1.60;;;18.70;59.20;;;;;;6170475;23;20573;-87
2022/05/27 05:32:20;;;;;;;1.88;1.77;;;18.80;59.10;;;;;;6195063;23;20134;-86
2022/05/27 05:34:46;;;;;;;2.13;2.03;;;18.70;59.10;;;;;;6195597;23;20137;-87
2022/05/27 05:37:12;;;;;;;1.95;1.85;;;18.80;59.20;;;;;;6246492;23;20130;-86
2022/05/27 05:39:37;;;;;;;1.90;1.80;;;18.70;59.80;;;;;;6195233;23;20213;-86
2022/05/27 05:42:04;;;;;;;1.75;1.65;;;18.70;58.90;;;;;;6169963;23;20160;-86
2022/05/27 05:44:30;;;;;;;1.55;1.45;;;18.70;59.30;;;;;;6170187;23;20145;-86
2022/05/27 05:46:56;;;;;;;2.00;1.90;;;18.70;59.10;;;;;;6194968;23;20130;-87
2022/05/27 05:49:21;;;;;;;1.70;1.60;;;18.70;59.30;;;;;;6194879;23;20545;-87
2022/05/27 05:51:47;;;;;;;2.05;1.92;;;18.70;59.30;;;;;;6220153;23;20133;-87
2022/05/27 05:54:12;;;;;;;1.70;1.60;;;18.70;60.00;;;;;;6220620;23;20149;-88
2022/05/27 05:56:38;;;;;;;1.83;1.73;;;18.70;59.10;;;;;;6220521;23;20232;-87
2022/05/27 05:59:04;;;;;;;2.20;2.00;;;18.70;59.10;;;;;;6246689;23;20242;-86
2022/05/27 06:01:29;;;;;;;1.60;1.50;;;18.70;59.40;;;;;;6194602;23;20173;-86
2022/05/27 06:03:55;;;;;;;1.98;1.88;;;18.70;59.10;;;;;;6220218;23;20209;-87
2022/05/27 06:06:21;;;;;;;1.80;1.70;;;18.70;59.30;;;;;;6194473;23;20484;-86
2022/05/27 06:08:46;;;;;;;1.60;1.50;;;18.70;59.30;;;;;;6220231;23;20584;-87
2022/05/27 06:11:12;;;;;;;1.58;1.48;;;18.60;59.20;;;;;;6219767;23;20554;-86
2022/05/27 06:13:40;;;;;;;1.80;1.70;;;18.70;59.40;;;;;;6194749;23;20129;-86
2022/05/27 06:16:06;;;;;;;1.60;1.50;;;18.60;59.40;;;;;;6220263;23;20122;-85
2022/05/27 06:18:32;;;;;;;1.70;1.60;;;18.70;59.40;;;;;;6195263;23;20136;-86
2022/05/27 06:20:58;;;;;;;1.58;1.48;;;18.70;59.40;;;;;;6194796;23;20165;-86
2022/05/27 06:23:27;;;;;;;1.50;1.40;;;18.70;59.30;;;;;;6195180;23;20138;-86
2022/05/27 06:25:55;;;;;;;1.80;1.70;;;18.70;59.30;;;;;;6195775;23;20181;-86
2022/05/27 06:36:25;;;;;;;1.90;1.80;;;18.70;59.30;;;;;;6201421;23;20133;-86
2022/05/27 06:38:50;;;;;;;1.73;1.63;;;18.70;59.50;;;;;;6218553;23;20239;-86
2022/05/27 06:41:17;;;;;;;1.70;1.60;;;18.70;59.30;;;;;;6194083;23;20169;-86
2022/05/27 06:43:42;;;;;;;1.52;1.42;;;18.70;59.40;;;;;;6169209;23;20185;-87
2022/05/27 06:46:08;;;;;;;1.73;1.63;;;18.70;59.40;;;;;;6169159;23;20145;-86
2022/05/27 06:48:33;;;;;;;1.73;1.63;;;18.70;59.50;;;;;;6169953;23;20519;-86
2022/05/27 06:51:04;;;;;;;1.55;1.45;;;18.70;59.30;;;;;;6195628;23;20145;-86
2022/05/27 06:53:34;;;;;;;1.48;1.38;;;18.70;59.30;;;;;;6171268;23;20146;-88
2022/05/27 06:55:59;;;;;;;1.60;1.50;;;18.70;59.40;;;;;;6172077;23;20149;-86
2022/05/27 06:58:30;;;;;;;1.60;1.50;;;18.70;59.40;;;;;;6197058;23;20141;-86
2022/05/27 07:00:57;;;;;;;1.60;1.50;;;18.70;59.40;;;;;;6171418;23;20514;-86
2022/05/27 07:03:23;;;;;;;1.50;1.40;;;18.70;59.40;;;;;;6168971;23;20622;-87
2022/05/27 07:05:48;;;;;;;1.80;1.70;;;18.70;59.40;;;;;;6217940;23;20149;-85
2022/05/27 07:08:14;;;;;;;1.60;1.50;;;18.70;59.40;;;;;;6169595;23;20171;-86
2022/05/27 07:10:39;;;;;;;2.97;1.70;;;18.70;59.60;;;;;;6194947;23;20576;-86
2022/05/27 07:13:05;;;;;;;1.80;1.70;;;18.60;59.60;;;;;;6195001;23;20133;-86
2022/05/27 07:15:31;;;;;;;1.75;1.65;;;18.70;59.70;;;;;;6195085;23;20130;-86
2022/05/27 07:17:57;;;;;;;1.40;1.30;;;18.70;59.70;;;;;;6220033;23;20582;-86
2022/05/27 07:20:23;;;;;;;1.60;1.50;;;18.70;59.70;;;;;;6195183;23;20265;-86
2022/05/27 07:22:49;;;;;;;1.70;1.60;;;18.70;59.70;;;;;;6170648;23;20457;-86
2022/05/27 07:25:15;;;;;;;1.50;1.40;;;18.70;59.80;;;;;;6219993;23;20161;-86
2022/05/27 07:27:41;;;;;;;1.60;1.50;;;18.70;59.70;;;;;;6171092;23;20145;-86
2022/05/27 07:30:08;;;;;;;1.70;1.60;;;18.70;59.70;;;;;;6195753;23;20199;-86
2022/05/27 07:32:35;;;;;;;1.80;1.70;;;18.70;59.60;;;;;;6220235;23;20264;-87
2022/05/27 07:35:02;;;;;;;1.60;1.50;;;18.70;59.70;;;;;;6171201;23;20480;-85
2022/05/27 07:37:27;;;;;;;1.30;1.20;;;18.70;59.70;;;;;;6196712;23;20185;-87
2022/05/27 07:40:00;;;;;;;1.60;1.50;;;18.70;59.60;;;;;;6195809;23;20232;-86
2022/05/27 07:42:26;;;;;;;1.58;1.48;;;18.70;59.60;;;;;;6129206;23;20164;-86
2022/05/27 07:44:52;;;;;;;1.55;1.45;;;18.70;59.60;;;;;;6075193;23;20259;-87
2022/05/27 07:47:18;;;;;;;1.60;1.50;;;18.60;59.40;;;;;;6151118;23;20135;-86
2022/05/27 07:49:43;;;;;;;1.73;1.63;;;18.60;59.40;;;;;;6123808;23;20231;-86
2022/05/27 07:52:09;;;;;;;1.40;1.30;;;18.70;60.10;;;;;;6096007;23;20147;-86
2022/05/27 07:54:35;;;;;;;2.05;1.50;;;18.70;59.50;;;;;;6082128;23;20183;-86
2022/05/27 07:57:01;;;;;;;2.45;1.40;;;18.70;59.40;;;;;;6105928;23;20140;-86
2022/05/27 07:59:27;;;;;;;1.40;1.30;;;18.70;59.50;;;;;;6082389;23;20155;-86
2022/05/27 08:01:53;;;;;;;1.73;1.63;;;18.70;59.80;;;;;;6105897;23;20187;-86
2022/05/27 08:04:19;;;;;;;1.50;1.40;;;18.70;59.60;;;;;;6130211;23;20303;-87
2022/05/27 08:06:45;;;;;;;1.45;1.35;;;18.70;59.40;;;;;;6144505;23;20149;-85
2022/05/27 08:09:12;;;;;;;1.50;1.40;;;18.70;59.60;;;;;;6196002;23;20137;-86
2022/05/27 08:11:38;;;;;;;1.50;1.40;;;18.70;59.40;;;;;;6171201;23;20205;-86
2022/05/27 08:14:03;;;;;;;1.50;1.40;;;18.70;59.60;;;;;;6171019;23;20142;-86
2022/05/27 08:16:32;;;;;;;1.45;1.35;;;18.80;59.60;;;;;;6196417;23;20224;-86
2022/05/27 08:18:59;;;;;;;1.50;1.40;;;18.70;59.60;;;;;;6171943;23;20488;-86
2022/05/27 08:21:25;;;;;;;1.65;1.35;;;18.70;60.50;;;;;;6220744;23;20291;-86
2022/05/27 08:23:52;;;;;;;1.58;1.48;;;18.70;59.60;;;;;;6196174;23;20204;-86
2022/05/27 08:26:18;;;;;;;2.08;1.65;;;18.70;59.70;;;;;;6171093;23;20271;-86
2022/05/27 08:28:47;;;;;;;1.60;1.50;;;18.70;59.70;;;;;;6170805;23;20137;-86
2022/05/27 08:31:13;;;;;;;1.55;1.45;;;18.80;59.50;;;;;;6131023;23;20190;-86
2022/05/27 08:38:57;;;;;;;1.60;1.50;;;18.80;59.40;;;;;;6110323;23;20195;-86
2022/05/27 08:41:30;;;;;;;1.48;1.38;;;18.80;59.40;;;;;;6154728;23;20202;-86
2022/05/27 08:44:10;;;;;;;1.38;1.23;;;18.80;59.50;;;;;;6105672;23;20143;-85
2022/05/27 08:46:44;;;;;;;1.35;1.25;;;18.70;59.40;;;;;;6082707;23;20258;-86
2022/05/27 08:49:14;;;;;;;1.33;1.23;;;18.80;59.20;;;;;;6129989;23;20143;-86
2022/05/27 08:51:45;;;;;;;1.58;1.48;;;18.90;59.30;;;;;;6105757;23;20198;-86
2022/05/27 08:54:18;;;;;;;1.58;1.48;;;18.80;59.20;;;;;;6105607;23;20144;-86
2022/05/27 08:59:37;;;;;;;1.48;1.38;;;18.80;59.10;;;;;;6154418;23;20136;-86
2022/05/27 09:02:22;;;;;;;1.45;1.35;;;18.80;59.20;;;;;;6123170;23;20187;-86
2022/05/27 09:04:59;;;;;;;1.40;1.30;;;18.80;59.10;;;;;;6223014;23;20434;-88
2022/05/27 09:07:32;;;;;;;1.40;1.30;;;18.90;59.20;;;;;;6172899;23;20176;-86
2022/05/27 09:09:58;;;;;;;1.40;1.30;;;18.90;59.10;;;;;;6220586;23;20138;-86
2022/05/27 09:12:32;;;;;;;1.38;1.27;;;18.90;58.90;;;;;;6195517;23;20175;-86
2022/05/27 09:15:12;;;;;;;1.50;1.40;;;18.90;59.00;;;;;;6172192;23;20152;-87
2022/05/27 09:17:42;;;;;;;2.17;1.60;;;19.00;58.80;;;;;;6198372;23;20198;-87
2022/05/27 09:20:16;;;;;;;2.53;1.40;;;18.90;59.20;;;;;;6172051;23;20173;-85
2022/05/27 09:23:04;;;;;;;1.50;1.40;;;18.90;59.00;;;;;;6221056;23;20141;-86
2022/05/27 09:25:53;;;;;;;3.47;1.25;;;18.90;58.90;;;;;;6221140;23;20257;-87
2022/05/27 09:28:39;;;;;;;1.52;1.30;;;18.90;58.70;;;;;;6224743;23;20133;-86
2022/05/27 09:31:05;;;;;;;2.47;1.40;;;19.00;59.10;;;;;;6247343;23;20648;-86
2022/05/27 09:33:31;;;;;;;4.43;1.30;;;19.00;59.30;;;;;;6170725;23;20220;-86
2022/05/27 09:36:08;;;;;;;1.67;1.23;;;19.00;60.00;;;;;;6247159;23;20157;-87
2022/05/27 09:38:34;;;;;;;2.35;1.40;;;19.00;59.20;;;;;;6147701;23;20501;-85
2022/05/27 09:41:04;;;;;;;1.30;1.20;;;19.00;59.50;;;;;;6160469;23;20189;-86
2022/05/27 09:43:49;;;;;;;1.77;1.50;;;19.00;59.20;;;;;;6140844;23;20228;-86
2022/05/27 09:46:23;;;;;;;2.25;1.20;;;19.00;59.30;;;;;;6187456;23;20209;-86
2022/05/27 09:48:49;;;;;;;2.05;1.38;;;19.00;59.30;;;;;;6185146;23;20139;-87
2022/05/27 09:51:15;;;;;;;1.58;1.48;;;19.00;59.30;;;;;;6189426;23;20222;-86
2022/05/27 09:53:43;;;;;;;1.63;1.42;;;19.00;59.20;;;;;;6190332;23;20130;-86
2022/05/27 09:56:12;;;;;;;1.48;1.30;;;19.10;59.30;;;;;;6166096;23;20212;-87
2022/05/27 09:58:41;;;;;;;1.42;1.20;;;19.10;59.30;;;;;;6165258;23;20596;-86
2022/05/27 10:01:23;;;;;;;1.58;1.48;;;19.00;59.30;;;;;;6166242;23;20200;-86
2022/05/27 10:04:07;;;;;;;1.33;1.23;;;19.00;59.30;;;;;;6166545;23;20222;-86
2022/05/27 10:06:34;;;;;;;2.15;1.38;;;19.00;59.30;;;;;;6139187;23;20151;-86
2022/05/27 10:09:03;;;;;;;3.17;1.35;;;19.00;59.30;;;;;;6185216;23;20189;-86
2022/05/27 10:11:32;;;;;;;1.95;1.27;;;19.10;59.30;;;;;;6191840;23;20434;-85
2022/05/27 10:14:18;;;;;;;2.00;1.38;;;19.00;59.20;;;;;;6185768;23;20162;-87
2022/05/27 10:17:08;;;;;;;1.52;1.40;;;19.10;59.20;;;;;;6186730;23;20310;-86
2022/05/27 10:19:33;;;;;;;1.60;1.50;;;19.00;59.20;;;;;;6191371;23;20150;-86
2022/05/27 10:22:02;;;;;;;2.63;1.40;;;19.10;59.20;;;;;;6166122;23;20235;-86
2022/05/27 10:24:38;;;;;;;3.83;1.30;;;19.10;59.20;;;;;;6165975;23;20138;-86
2022/05/27 10:27:11;;;;;;;1.50;1.40;;;19.00;59.00;;;;;;6191169;23;20145;-86
2022/05/27 10:29:52;;;;;;;4.38;1.30;;;19.10;59.10;;;;;;6161955;23;20132;-85
2022/05/27 10:32:38;;;;;;;1.40;1.20;;;19.10;59.10;;;;;;6189354;23;20234;-85
2022/05/27 10:35:06;;;;;;;2.47;1.15;;;19.10;58.90;;;;;;6167076;23;20134;-85
2022/05/27 10:37:50;;;;;;;1.40;1.30;;;19.10;59.60;;;;;;6221832;23;20185;-86
2022/05/27 10:40:45;;;;;;;1.50;1.35;;;19.10;58.80;;;;;;6222077;23;20177;-87
2022/05/27 10:43:37;;;;;;;1.42;1.33;;;19.10;59.10;;;;;;6196937;23;20157;-85
2022/05/27 10:46:04;;;;;;;2.03;1.35;;;19.10;58.80;;;;;;6220117;23;20125;-87
2022/05/27 10:48:52;;;;;;;2.45;1.27;;;19.10;59.40;;;;;;6195626;23;20133;-87
2022/05/27 10:51:35;;;;;;;1.58;1.30;;;19.20;58.90;;;;;;6197045;23;20130;-84
2022/05/27 10:54:25;;;;;;;1.33;1.23;;;19.20;59.10;;;;;;6198437;23;20142;-85
2022/05/27 11:03:20;;;;;;;1.30;1.20;;;19.10;59.00;;;;;;6202429;23;20556;-84
2022/05/27 11:06:19;;;;;;;1.30;1.20;;;19.20;58.90;;;;;;6176022;23;20137;-86
2022/05/27 11:08:56;;;;;;;1.80;1.38;;;19.20;58.60;;;;;;6206413;23;20537;-85
2022/05/27 11:11:40;;;;;;;1.50;1.20;;;19.20;58.70;;;;;;6196374;23;20144;-85
2022/05/27 11:17:28;;;;;;;1.30;1.20;;;19.20;58.60;;;;;;6205375;23;20563;-86
2022/05/27 11:20:04;;;;;;;1.17;1.08;;;19.20;58.60;;;;;;6220597;23;20138;-86
2022/05/27 11:22:36;;;;;;;1.08;1.02;;;19.20;58.60;;;;;;6197633;23;20125;-85
2022/05/27 11:25:26;;;;;;;1.10;1.10;;;19.20;58.40;;;;;;6197168;23;20161;-86
2022/05/27 11:28:13;;;;;;;1.15;1.08;;;19.20;58.50;;;;;;6250073;23;20187;-86
2022/05/27 11:30:54;;;;;;;2.08;1.00;;;19.20;58.30;;;;;;6227625;23;20561;-86
2022/05/27 11:33:37;;;;;;;1.30;1.20;;;19.20;58.30;;;;;;6202747;23;20220;-86
2022/05/27 11:36:35;;;;;;;1.20;1.10;;;19.30;58.50;;;;;;6198824;23;20468;-85
2022/05/27 11:39:20;;;;;;;1.05;0.98;;;19.20;58.20;;;;;;6197131;23;20232;-85
2022/05/27 11:42:06;;;;;;;1.30;1.20;;;19.20;58.20;;;;;;6175327;23;20239;-84
2022/05/27 11:44:46;;;;;;;1.70;1.30;;;19.20;58.20;;;;;;6226934;23;20204;-86
2022/05/27 11:47:47;;;;;;;1.83;1.00;;;19.20;58.20;;;;;;6249642;23;20132;-85
2022/05/27 11:50:46;;;;;;;1.17;1.10;;;19.20;58.10;;;;;;6226653;23;20577;-84
2022/05/27 11:53:35;;;;;;;0.98;0.88;;;19.20;57.80;;;;;;6249287;23;20185;-85
2022/05/27 11:56:09;;;;;;;1.63;1.20;;;19.30;57.90;;;;;;6221974;23;20202;-84
2022/05/27 11:58:57;;;;;;;1.27;1.13;;;19.30;57.60;;;;;;6172949;23;20267;-83
2022/05/27 12:01:37;;;;;;;1.15;1.10;;;19.30;57.70;;;;;;6200162;23;20188;-84
2022/05/27 12:04:17;;;;;;;1.20;1.10;;;19.30;57.60;;;;;;6198739;23;20133;-84
2022/05/27 12:06:50;;;;;;;1.83;1.20;;;19.30;57.70;;;;;;6221789;23;20141;-84
2022/05/27 12:09:27;;;;;;;2.03;1.10;;;19.30;57.70;;;;;;6195874;23;20524;-85
2022/05/27 12:11:57;;;;;;;1.20;1.10;;;19.30;57.60;;;;;;6172883;23;20522;-84
2022/05/27 12:14:33;;;;;;;1.27;1.17;;;19.20;57.60;;;;;;6196279;23;20157;-83
2022/05/27 12:16:59;;;;;;;1.38;1.00;;;19.30;57.60;;;;;;6196744;23;20145;-84
2022/05/27 12:19:32;;;;;;;1.58;0.80;;;19.30;57.40;;;;;;6196019;23;20217;-86
2022/05/27 12:22:06;;;;;;;1.05;1.00;;;19.30;57.10;;;;;;6170903;23;20176;-85
2022/05/27 12:24:35;;;;;;;1.23;1.10;;;19.30;57.40;;;;;;6196975;23;20122;-83
2022/05/27 12:27:02;;;;;;;1.25;0.80;;;19.30;57.10;;;;;;6171144;23;20144;-84
2022/05/27 12:29:28;;;;;;;0.80;0.80;;;19.30;57.20;;;;;;6196278;23;20138;-85
2022/05/27 12:31:54;;;;;;;1.10;1.00;;;19.30;57.10;;;;;;6171043;23;20471;-83
2022/05/27 12:34:35;;;;;;;1.00;0.88;;;19.20;57.10;;;;;;6171035;23;20137;-85
2022/05/27 12:37:22;;;;;;;2.45;0.93;;;19.30;56.90;;;;;;6171051;23;20146;-84
2022/05/27 12:39:49;;;;;;;1.20;1.00;;;19.30;56.70;;;;;;6202544;23;20169;-84
2022/05/27 12:42:20;;;;;;;1.10;1.00;;;19.30;56.90;;;;;;6170338;23;20149;-85
2022/05/27 12:44:46;;;;;;;0.90;0.88;;;19.30;57.10;;;;;;6169774;23;20511;-84
2022/05/27 12:47:19;;;;;;;1.00;1.00;;;19.30;56.90;;;;;;6219500;23;20134;-85
2022/05/27 12:49:48;;;;;;;0.95;0.95;;;19.30;56.80;;;;;;6170620;23;20156;-86
2022/05/27 12:52:43;;;;;;;1.73;1.05;;;19.30;56.60;;;;;;6194259;23;20137;-85
2022/05/27 12:55:13;;;;;;;1.02;0.93;;;19.30;56.50;;;;;;6200963;23;20130;-85
2022/05/27 13:01:00;;;;;;;2.47;1.15;;;19.30;56.40;;;;;;6205376;23;20177;-86
2022/05/27 13:03:45;;;;;;;0.95;0.80;;;19.30;56.40;;;;;;6222765;23;20137;-86
2022/05/27 13:06:31;;;;;;;1.05;0.98;;;19.30;56.60;;;;;;6173224;23;20142;-86
2022/05/27 13:09:08;;;;;;;1.10;1.00;;;19.30;56.60;;;;;;6225880;23;20136;-86
2022/05/27 13:11:44;;;;;;;1.58;1.00;;;19.30;56.70;;;;;;6172027;23;20223;-85
2022/05/27 13:14:20;;;;;;;0.95;0.85;;;19.30;56.60;;;;;;6195806;23;20615;-85
2022/05/27 13:17:05;;;;;;;2.15;1.05;;;19.30;56.60;;;;;;6169594;23;20586;-85
2022/05/27 13:19:40;;;;;;;0.80;0.80;;;19.30;56.70;;;;;;6171811;23;20623;-85
2022/05/27 13:22:12;;;;;;;1.10;1.00;;;19.30;56.60;;;;;;6170355;23;20167;-86
2022/05/27 13:24:44;;;;;;;6.88;1.38;;;19.30;56.70;;;;;;6194380;23;20136;-87
2022/05/27 13:27:27;;;;;;;3.65;0.85;;;19.30;56.90;;;;;;6196988;23;20158;-86
2022/05/27 13:30:02;;;;;;;5.53;1.13;;;19.30;56.90;;;;;;6160142;23;20176;-86
2022/05/27 13:32:30;;;;;;;1.60;0.95;;;19.30;56.80;;;;;;6136041;23;20170;-86
2022/05/27 13:34:57;;;;;;;3.80;1.20;;;19.30;56.30;;;;;;6134983;23;20155;-86
2022/05/27 13:37:47;;;;;;;2.08;1.08;;;19.20;56.80;;;;;;6134547;23;20147;-86
2022/05/27 13:40:16;;;;;;;3.38;1.30;;;19.30;56.80;;;;;;6134244;23;20189;-86
2022/05/27 13:42:45;;;;;;;2.00;1.30;;;19.20;57.10;;;;;;6184143;23;20174;-86
2022/05/27 13:45:13;;;;;;;1.23;1.00;;;19.30;56.70;;;;;;6158889;23;20202;-86
2022/05/27 13:47:44;;;;;;;2.92;1.15;;;19.30;56.70;;;;;;6159074;23;20158;-87